Fukue Airport Goto JP
ICAO: RJFE
IATA:
Category: Medium
Scheduled Services:

Elevation: 273 ft
TransAlt. 0 ft.

Airport Communications:
RDO:118.35

RJFE Zoom In..

If you have problems with the map follow the link
https://www.worldairports.se/pages/airport.php?
ICAO=RJFE

Runways:

(A) RW 03 length 6562 ft width 148 ft
LOC 109.70 / hdg 32

(B) RW 21 length 6562 ft width 148 ft
LOC 109.70 / hdg 212

Location; RJFE
Day. 22 / Time. 10.00 Zulu
* QNH: 1015
* Temperature: 09° c. 48.2°f.
* Wind from: 360° Speed 09 kn.
Dewpoint: 06° c.
Visibility: 10 km or more.
Clouds: Few 1500 ft.
Clouds: Broken 5000 ft.

RJFE 221000Z 36009KT 9999 FEW015 BKN050 09/06 Q1015


Wind From 360°
Speed 09 kn.

 
 
jpsmedia.com for Web Design worldairports.se 2019   terms of use